createdAt,value
2023-06-11T00:00:10.747Z,17.22
2023-06-11T00:02:40.623Z,17.18
2023-06-11T00:05:10.475Z,17.16
2023-06-11T00:07:39.808Z,17.13
2023-06-11T00:10:08.282Z,17.10
2023-06-11T00:12:36.113Z,17.05
2023-06-11T00:15:06.063Z,17.04
2023-06-11T00:17:34.410Z,17.01
2023-06-11T00:20:10.705Z,16.99
2023-06-11T00:22:39.150Z,16.95
2023-06-11T00:25:08.058Z,16.93
2023-06-11T00:27:36.462Z,16.89
2023-06-11T00:30:07.528Z,16.84
2023-06-11T00:32:36.037Z,16.82
2023-06-11T00:37:36.793Z,16.77
2023-06-11T00:40:04.987Z,16.74
2023-06-11T00:42:34.590Z,16.73
2023-06-11T00:45:04.727Z,16.70
2023-06-11T00:47:35.153Z,16.67
2023-06-11T00:50:05.273Z,16.63
2023-06-11T00:52:33.158Z,16.59
2023-06-11T00:55:04.071Z,16.57
2023-06-11T00:57:33.004Z,16.56
2023-06-11T01:00:01.770Z,16.52
2023-06-11T01:02:37.838Z,16.49
2023-06-11T01:05:08.921Z,16.47
2023-06-11T01:07:38.294Z,16.44
2023-06-11T01:10:07.826Z,16.40
2023-06-11T01:12:37.171Z,16.38
2023-06-11T01:15:05.651Z,16.34
2023-06-11T01:17:42.432Z,16.31
2023-06-11T01:20:15.382Z,16.29
2023-06-11T01:23:17.417Z,16.22
2023-06-11T01:25:52.614Z,16.17
2023-06-11T01:28:28.088Z,16.12
2023-06-11T01:30:59.169Z,16.10
2023-06-11T01:33:28.455Z,16.05
2023-06-11T01:35:59.508Z,16.04
2023-06-11T01:38:35.968Z,16.03
2023-06-11T01:41:04.561Z,16.01
2023-06-11T01:43:34.116Z,15.98
2023-06-11T01:46:01.969Z,15.96
2023-06-11T01:48:29.667Z,15.94
2023-06-11T01:50:57.285Z,15.92
2023-06-11T01:53:25.596Z,15.88
2023-06-11T01:55:53.478Z,15.87
2023-06-11T01:58:21.152Z,15.86
2023-06-11T02:00:50.418Z,15.84
2023-06-11T02:03:18.271Z,15.81
2023-06-11T02:05:46.405Z,15.78
2023-06-11T02:08:14.251Z,15.77
2023-06-11T02:10:41.938Z,15.74
2023-06-11T02:13:09.589Z,15.68
2023-06-11T02:15:37.289Z,15.65
2023-06-11T02:18:06.938Z,15.61
2023-06-11T02:20:34.681Z,15.57
2023-06-11T02:23:03.278Z,15.55
2023-06-11T02:25:30.937Z,15.51
2023-06-11T02:27:58.568Z,15.46
2023-06-11T02:30:27.552Z,15.44
2023-06-11T02:32:55.283Z,15.39
2023-06-11T02:35:24.583Z,15.36
2023-06-11T02:37:52.290Z,15.31
2023-06-11T02:40:20.092Z,15.27
2023-06-11T02:42:47.921Z,15.24
2023-06-11T02:45:15.565Z,15.21
2023-06-11T02:47:43.286Z,15.19
2023-06-11T02:50:11.529Z,15.15
2023-06-11T02:52:40.846Z,15.11
2023-06-11T02:55:09.464Z,15.07
2023-06-11T02:57:37.735Z,15.02
2023-06-11T03:00:06.905Z,14.98
2023-06-11T03:02:34.957Z,14.95
2023-06-11T03:05:02.705Z,14.91
2023-06-11T03:07:31.504Z,14.88
2023-06-11T03:10:03.290Z,14.85
2023-06-11T03:12:33.431Z,14.82
2023-06-11T03:15:01.783Z,14.78
2023-06-11T03:17:29.488Z,14.76
2023-06-11T03:19:57.572Z,14.72
2023-06-11T03:22:25.585Z,14.70
2023-06-11T03:24:53.258Z,14.68
2023-06-11T03:27:31.179Z,14.66
2023-06-11T03:29:59.111Z,14.65
2023-06-11T03:32:27.093Z,14.62
2023-06-11T03:34:54.852Z,14.61
2023-06-11T03:37:24.748Z,14.59
2023-06-11T03:39:56.600Z,14.56
2023-06-11T03:42:24.856Z,14.55
2023-06-11T03:44:56.818Z,14.54
2023-06-11T03:47:26.751Z,14.53
2023-06-11T03:49:54.607Z,14.52
2023-06-11T03:52:22.353Z,14.52
2023-06-11T03:54:50.303Z,14.52
2023-06-11T03:57:19.618Z,14.52
2023-06-11T03:59:47.729Z,14.52
2023-06-11T04:02:16.909Z,14.51
2023-06-11T04:04:44.991Z,14.51
2023-06-11T04:07:12.799Z,14.50
2023-06-11T04:09:41.453Z,14.52
2023-06-11T04:12:10.178Z,14.52
2023-06-11T04:14:38.292Z,14.53
2023-06-11T04:17:07.062Z,14.54
2023-06-11T04:19:36.532Z,14.55
2023-06-11T04:22:04.704Z,14.56
2023-06-11T04:24:34.419Z,14.58
2023-06-11T04:27:02.518Z,14.59
2023-06-11T04:29:30.816Z,14.59
2023-06-11T04:32:04.347Z,14.62
2023-06-11T04:34:35.069Z,14.62
2023-06-11T04:37:05.987Z,14.65
2023-06-11T04:39:34.176Z,14.68
2023-06-11T04:42:06.618Z,14.72
2023-06-11T04:44:37.637Z,14.77
2023-06-11T04:47:07.845Z,14.81
2023-06-11T04:49:38.459Z,14.84
2023-06-11T04:52:09.573Z,14.88
2023-06-11T04:54:37.381Z,14.93
2023-06-11T04:57:06.935Z,14.97
2023-06-11T04:59:34.938Z,15.01
2023-06-11T05:02:02.781Z,15.07
2023-06-11T05:04:30.481Z,15.14
2023-06-11T05:07:01.288Z,15.20
2023-06-11T05:09:31.365Z,15.25
2023-06-11T05:11:59.644Z,15.31
2023-06-11T05:14:28.276Z,15.39
2023-06-11T05:16:56.714Z,15.47
2023-06-11T05:19:24.583Z,15.55
2023-06-11T05:21:52.300Z,15.62
2023-06-11T05:24:23.329Z,15.70
2023-06-11T05:26:57.917Z,15.80
2023-06-11T05:29:27.547Z,15.87
2023-06-11T05:31:57.610Z,15.97
2023-06-11T05:34:27.365Z,16.05
2023-06-11T05:36:58.150Z,16.12
2023-06-11T05:39:25.979Z,16.18
2023-06-11T05:41:53.790Z,16.26
2023-06-11T05:44:24.971Z,16.35
2023-06-11T05:46:52.894Z,16.40
2023-06-11T05:49:20.986Z,16.47
2023-06-11T05:51:49.258Z,16.52
2023-06-11T05:54:18.071Z,16.58
2023-06-11T05:56:46.988Z,16.62
2023-06-11T05:59:15.834Z,16.67
2023-06-11T06:01:47.157Z,16.73
2023-06-11T06:04:18.139Z,16.81
2023-06-11T06:06:46.641Z,16.88
2023-06-11T06:09:15.539Z,16.93
2023-06-11T06:11:44.544Z,16.97
2023-06-11T06:14:12.599Z,17.04
2023-06-11T06:16:41.430Z,17.12
2023-06-11T06:19:15.040Z,17.20
2023-06-11T06:21:42.756Z,17.27
2023-06-11T06:24:12.434Z,17.34
2023-06-11T06:26:42.177Z,17.41
2023-06-11T06:29:10.589Z,17.50
2023-06-11T06:31:39.312Z,17.58
2023-06-11T06:34:08.380Z,17.67
2023-06-11T06:36:38.420Z,17.74
2023-06-11T06:39:06.782Z,17.80
2023-06-11T06:41:34.505Z,17.89
2023-06-11T06:44:09.061Z,17.96
2023-06-11T06:46:36.766Z,18.04
2023-06-11T06:49:04.811Z,18.11
2023-06-11T06:51:33.916Z,18.20
2023-06-11T06:54:03.640Z,18.30
2023-06-11T06:56:31.374Z,18.39
2023-06-11T06:58:59.082Z,18.48
2023-06-11T07:01:28.368Z,18.53
2023-06-11T07:03:56.534Z,18.60
2023-06-11T07:06:26.098Z,18.66
2023-06-11T07:08:54.165Z,18.72
2023-06-11T07:11:25.127Z,18.81
2023-06-11T07:13:53.464Z,18.87
2023-06-11T07:16:21.445Z,18.95
2023-06-11T07:18:54.331Z,19.04
2023-06-11T07:21:22.066Z,19.14
2023-06-11T07:23:49.727Z,19.23
2023-06-11T07:26:19.246Z,19.34
2023-06-11T07:28:49.151Z,19.46
2023-06-11T07:31:17.948Z,19.55
2023-06-11T07:33:46.010Z,19.67
2023-06-11T07:36:14.283Z,19.80
2023-06-11T07:38:43.799Z,19.94
2023-06-11T07:41:11.724Z,20.06
2023-06-11T07:43:39.514Z,20.19
2023-06-11T07:46:09.642Z,20.30
2023-06-11T07:48:42.313Z,20.41
2023-06-11T07:51:10.315Z,20.49
2023-06-11T07:53:39.186Z,20.58
2023-06-11T07:56:07.981Z,20.69
2023-06-11T07:58:37.916Z,20.77
2023-06-11T08:01:05.555Z,20.85
2023-06-11T08:03:38.717Z,20.97
2023-06-11T08:06:06.571Z,21.06
2023-06-11T08:08:34.258Z,21.19
2023-06-11T08:11:02.035Z,21.32
2023-06-11T08:13:29.693Z,21.42
2023-06-11T08:15:57.351Z,21.52
2023-06-11T08:18:25.023Z,21.65
2023-06-11T08:20:54.760Z,21.77
2023-06-11T08:23:22.383Z,21.90
2023-06-11T08:25:50.008Z,22.05
2023-06-11T08:28:20.683Z,22.20
2023-06-11T08:30:48.392Z,22.34
2023-06-11T08:33:16.043Z,22.49
2023-06-11T08:35:43.937Z,22.63
2023-06-11T08:38:13.024Z,22.74
2023-06-11T08:40:42.012Z,22.89
2023-06-11T08:43:09.830Z,23.04
2023-06-11T08:45:37.994Z,23.22
2023-06-11T08:48:07.222Z,23.39
2023-06-11T08:50:34.885Z,23.52
2023-06-11T08:53:06.039Z,23.66
2023-06-11T08:55:35.258Z,23.82
2023-06-11T08:58:03.180Z,24.02
2023-06-11T09:00:30.932Z,24.19
2023-06-11T09:02:58.875Z,24.37
2023-06-11T09:05:27.118Z,24.55
2023-06-11T09:07:56.737Z,24.83
2023-06-11T09:10:24.460Z,25.14
2023-06-11T09:12:56.038Z,25.40
2023-06-11T09:15:26.454Z,25.61
2023-06-11T09:17:55.512Z,25.84
2023-06-11T09:20:24.459Z,26.01
2023-06-11T09:22:54.018Z,26.27
2023-06-11T09:25:21.655Z,26.53
2023-06-11T09:27:49.935Z,26.78
2023-06-11T09:30:20.784Z,27.05
2023-06-11T09:32:50.730Z,27.34
2023-06-11T09:35:21.836Z,27.62
2023-06-11T09:37:52.066Z,27.89
2023-06-11T09:40:24.326Z,28.14
2023-06-11T09:42:52.936Z,28.32
2023-06-11T09:45:24.779Z,28.54
2023-06-11T09:47:53.060Z,28.74
2023-06-11T09:50:23.241Z,28.91
2023-06-11T09:52:52.458Z,29.13
2023-06-11T09:55:22.685Z,29.35
2023-06-11T09:57:53.237Z,29.60
2023-06-11T10:00:23.176Z,29.83
2023-06-11T10:02:51.332Z,29.99
2023-06-11T10:05:19.183Z,30.21
2023-06-11T10:07:51.008Z,30.39
2023-06-11T10:10:21.947Z,30.54
2023-06-11T10:12:51.205Z,30.74
2023-06-11T10:15:20.802Z,30.94
2023-06-11T10:17:52.073Z,31.22
2023-06-11T10:20:28.540Z,31.48
2023-06-11T10:23:11.025Z,31.72
2023-06-11T10:25:43.031Z,31.91
2023-06-11T10:28:11.433Z,32.01
2023-06-11T10:30:39.449Z,32.25
2023-06-11T10:33:08.673Z,32.51
2023-06-11T10:35:37.945Z,32.75
2023-06-11T10:38:07.174Z,32.96
2023-06-11T10:40:36.424Z,33.11
2023-06-11T10:43:06.648Z,33.28
2023-06-11T10:45:36.944Z,33.43
2023-06-11T10:48:06.050Z,33.52
2023-06-11T10:50:36.405Z,33.63
2023-06-11T10:53:09.930Z,33.81
2023-06-11T10:55:37.971Z,34.04
2023-06-11T10:58:05.944Z,34.24
2023-06-11T11:00:39.330Z,34.35
2023-06-11T11:03:07.820Z,34.46
2023-06-11T11:05:42.682Z,34.55
2023-06-11T11:08:10.533Z,34.72
2023-06-11T11:10:38.305Z,34.81
2023-06-11T11:13:06.057Z,34.83
2023-06-11T11:15:33.818Z,34.86
2023-06-11T11:18:01.670Z,34.74
2023-06-11T11:20:30.080Z,34.96
2023-06-11T11:22:59.647Z,35.16
2023-06-11T11:25:30.815Z,35.08
2023-06-11T11:27:58.899Z,34.97
2023-06-11T11:30:29.462Z,35.17
2023-06-11T11:32:58.211Z,35.34
2023-06-11T11:35:27.661Z,35.41
2023-06-11T11:37:55.893Z,35.48
2023-06-11T11:40:25.303Z,35.47
2023-06-11T11:42:54.207Z,35.58
2023-06-11T11:45:23.805Z,35.75
2023-06-11T11:47:53.565Z,35.94
2023-06-11T11:50:24.095Z,36.16
2023-06-11T11:53:05.533Z,36.31
2023-06-11T11:55:44.838Z,36.43
2023-06-11T11:58:19.900Z,36.47
2023-06-11T12:00:50.215Z,36.36
2023-06-11T12:03:20.618Z,36.49
2023-06-11T12:05:58.415Z,36.62
2023-06-11T12:08:26.549Z,36.81
2023-06-11T12:10:55.774Z,36.96
2023-06-11T12:13:23.625Z,37.09
2023-06-11T12:15:51.364Z,37.32
2023-06-11T12:18:19.633Z,37.57
2023-06-11T12:20:47.768Z,37.78
2023-06-11T12:23:15.585Z,37.96
2023-06-11T12:25:44.078Z,38.08
2023-06-11T12:28:13.097Z,38.16
2023-06-11T12:30:42.738Z,38.26
2023-06-11T12:33:11.648Z,38.29
2023-06-11T12:35:39.529Z,38.26
2023-06-11T12:38:07.695Z,38.23
2023-06-11T12:40:35.476Z,38.27
2023-06-11T12:43:03.310Z,38.32
2023-06-11T12:45:34.114Z,38.30
2023-06-11T12:48:02.065Z,38.36
2023-06-11T12:50:29.809Z,38.43
2023-06-11T12:52:57.996Z,38.50
2023-06-11T12:55:26.466Z,38.59
2023-06-11T12:57:54.304Z,38.64
2023-06-11T13:00:23.323Z,38.56
2023-06-11T13:02:52.831Z,38.56
2023-06-11T13:05:22.557Z,38.64
2023-06-11T13:07:50.863Z,38.59
2023-06-11T13:10:19.641Z,38.36
2023-06-11T13:12:47.341Z,38.07
2023-06-11T13:15:15.012Z,37.95
2023-06-11T13:17:42.702Z,37.98
2023-06-11T13:20:12.837Z,38.15
2023-06-11T13:22:40.833Z,38.24
2023-06-11T13:25:09.865Z,38.30
2023-06-11T13:27:37.633Z,38.33
2023-06-11T13:30:10.632Z,38.42
2023-06-11T13:32:39.303Z,38.56
2023-06-11T13:35:07.864Z,38.52
2023-06-11T13:37:37.039Z,38.41
2023-06-11T13:40:05.425Z,38.20
2023-06-11T13:42:33.104Z,38.12
2023-06-11T13:45:04.409Z,38.19
2023-06-11T13:47:32.112Z,38.29
2023-06-11T13:49:59.801Z,38.38
2023-06-11T13:52:27.474Z,38.30
2023-06-11T13:54:56.460Z,38.17
2023-06-11T13:57:28.738Z,37.95
2023-06-11T13:59:56.676Z,37.59
2023-06-11T14:02:24.812Z,37.49
2023-06-11T14:04:54.232Z,37.48
2023-06-11T14:07:21.956Z,37.38
2023-06-11T14:09:49.914Z,37.46
2023-06-11T14:12:18.958Z,37.43
2023-06-11T14:14:46.814Z,37.30
2023-06-11T14:17:14.433Z,37.20
2023-06-11T14:19:42.170Z,37.25
2023-06-11T14:22:09.815Z,37.29
2023-06-11T14:24:37.600Z,37.35
2023-06-11T14:27:06.022Z,37.41
2023-06-11T14:29:35.010Z,37.37
2023-06-11T14:32:03.827Z,37.40
2023-06-11T14:34:32.102Z,37.37
2023-06-11T14:36:59.774Z,37.15
2023-06-11T14:39:27.457Z,36.88
2023-06-11T14:41:55.858Z,36.72
2023-06-11T14:44:23.590Z,36.51
2023-06-11T14:46:53.515Z,36.40
2023-06-11T14:49:22.035Z,36.25
2023-06-11T14:51:50.112Z,36.13
2023-06-11T14:54:17.947Z,36.07
2023-06-11T14:56:45.719Z,35.93
2023-06-11T14:59:13.586Z,35.82
2023-06-11T15:01:42.694Z,35.74
2023-06-11T15:04:12.705Z,35.62
2023-06-11T15:06:40.733Z,35.49
2023-06-11T15:09:08.754Z,35.26
2023-06-11T15:11:36.666Z,35.09
2023-06-11T15:14:04.732Z,34.87
2023-06-11T15:16:32.469Z,34.55
2023-06-11T15:19:00.157Z,34.27
2023-06-11T15:21:29.254Z,34.08
2023-06-11T15:23:57.044Z,33.96
2023-06-11T15:26:24.742Z,33.77
2023-06-11T15:28:52.443Z,33.69
2023-06-11T15:31:20.211Z,33.60
2023-06-11T15:33:47.869Z,33.45
2023-06-11T15:36:15.462Z,33.34
2023-06-11T15:38:44.479Z,33.16
2023-06-11T15:41:15.178Z,33.03
2023-06-11T15:43:43.880Z,32.95
2023-06-11T15:46:11.577Z,32.83
2023-06-11T15:48:41.265Z,32.77
2023-06-11T15:51:09.078Z,32.71
2023-06-11T15:53:36.718Z,32.55
2023-06-11T15:56:06.221Z,32.35
2023-06-11T15:58:33.890Z,32.20
2023-06-11T16:01:01.647Z,32.10
2023-06-11T16:03:29.576Z,31.95
2023-06-11T16:05:57.382Z,31.79
2023-06-11T16:08:25.020Z,31.68
2023-06-11T16:10:52.728Z,31.55
2023-06-11T16:13:21.720Z,31.42
2023-06-11T16:15:49.718Z,31.28
2023-06-11T16:18:17.433Z,31.23
2023-06-11T16:20:45.120Z,31.14
2023-06-11T16:23:12.829Z,31.09
2023-06-11T16:25:40.514Z,30.99
2023-06-11T16:28:08.186Z,30.87
2023-06-11T16:30:37.382Z,30.71
2023-06-11T16:33:05.325Z,30.61
2023-06-11T16:35:33.296Z,30.50
2023-06-11T16:38:00.994Z,30.37
2023-06-11T16:40:28.661Z,30.27
2023-06-11T16:42:56.308Z,30.17
2023-06-11T16:45:24.139Z,30.03
2023-06-11T16:47:53.244Z,29.91
2023-06-11T16:50:20.983Z,29.83
2023-06-11T16:52:52.748Z,29.75
2023-06-11T16:55:22.317Z,29.69
2023-06-11T16:57:50.808Z,29.65
2023-06-11T17:00:20.408Z,29.59
2023-06-11T17:02:50.206Z,29.56
2023-06-11T17:05:19.770Z,29.50
2023-06-11T17:07:51.129Z,29.45
2023-06-11T17:10:18.880Z,29.42
2023-06-11T17:12:47.328Z,29.37
2023-06-11T17:15:17.182Z,29.31
2023-06-11T17:17:45.722Z,29.22
2023-06-11T17:20:14.853Z,29.12
2023-06-11T17:22:47.058Z,29.04
2023-06-11T17:25:15.332Z,28.98
2023-06-11T17:27:43.095Z,28.90
2023-06-11T17:30:11.494Z,28.85
2023-06-11T17:32:39.423Z,28.76
2023-06-11T17:35:08.161Z,28.68
2023-06-11T17:37:36.001Z,28.61
2023-06-11T17:40:05.698Z,28.53
2023-06-11T17:42:33.550Z,28.44
2023-06-11T17:45:01.262Z,28.36
2023-06-11T17:47:29.036Z,28.29
2023-06-11T17:49:56.849Z,28.22
2023-06-11T17:52:24.598Z,28.17
2023-06-11T17:54:52.635Z,28.11
2023-06-11T17:57:22.088Z,28.04
2023-06-11T17:59:49.864Z,27.98
2023-06-11T18:02:17.547Z,27.88
2023-06-11T18:04:45.162Z,27.79
2023-06-11T18:07:12.804Z,27.71
2023-06-11T18:09:40.605Z,27.63
2023-06-11T18:12:09.422Z,27.55
2023-06-11T18:14:38.403Z,27.47
2023-06-11T18:17:06.836Z,27.37
2023-06-11T18:19:35.616Z,27.28
2023-06-11T18:22:03.296Z,27.18
2023-06-11T18:24:32.255Z,27.09
2023-06-11T18:27:00.004Z,26.98
2023-06-11T18:29:28.593Z,26.90
2023-06-11T18:31:59.030Z,26.80
2023-06-11T18:34:26.805Z,26.71
2023-06-11T18:36:54.489Z,26.61
2023-06-11T18:39:22.223Z,26.53
2023-06-11T18:41:49.901Z,26.45
2023-06-11T18:44:18.633Z,26.37
2023-06-11T18:46:46.304Z,26.28
2023-06-11T18:49:15.446Z,26.20
2023-06-11T18:51:43.071Z,26.10
2023-06-11T18:54:11.421Z,26.00
2023-06-11T18:56:39.095Z,25.91
2023-06-11T18:59:07.681Z,25.80
2023-06-11T19:01:35.473Z,25.71
2023-06-11T19:04:03.175Z,25.57
2023-06-11T19:06:32.232Z,25.47
2023-06-11T19:08:59.880Z,25.38
2023-06-11T19:11:27.721Z,25.30
2023-06-11T19:13:55.651Z,25.18
2023-06-11T19:16:23.335Z,25.08
2023-06-11T19:18:51.034Z,24.99
2023-06-11T19:21:23.980Z,24.89
2023-06-11T19:23:52.997Z,24.82
2023-06-11T19:26:21.253Z,24.74
2023-06-11T19:28:50.234Z,24.69
2023-06-11T19:31:17.959Z,24.62
2023-06-11T19:33:46.454Z,24.54
2023-06-11T19:36:14.148Z,24.48
2023-06-11T19:38:41.831Z,24.43
2023-06-11T19:41:13.094Z,24.36
2023-06-11T19:43:42.629Z,24.28
2023-06-11T19:46:10.694Z,24.21
2023-06-11T19:48:38.388Z,24.15
2023-06-11T19:51:06.044Z,24.08
2023-06-11T19:53:33.720Z,24.03
2023-06-11T19:56:01.336Z,23.92
2023-06-11T19:58:30.341Z,23.86
2023-06-11T20:00:58.087Z,23.79
2023-06-11T20:03:25.758Z,23.70
2023-06-11T20:05:53.515Z,23.62
2023-06-11T20:08:21.377Z,23.55
2023-06-11T20:10:49.063Z,23.49
2023-06-11T20:13:16.804Z,23.40
2023-06-11T20:15:46.016Z,23.32
2023-06-11T20:18:13.646Z,23.25
2023-06-11T20:20:41.742Z,23.18
2023-06-11T20:23:10.006Z,23.11
2023-06-11T20:25:37.769Z,23.02
2023-06-11T20:28:05.811Z,22.93
2023-06-11T20:30:33.444Z,22.88
2023-06-11T20:33:02.563Z,22.81
2023-06-11T20:35:30.586Z,22.74
2023-06-11T20:37:58.269Z,22.68
2023-06-11T20:40:26.087Z,22.61
2023-06-11T20:42:53.777Z,22.54
2023-06-11T20:45:21.442Z,22.49
2023-06-11T20:47:49.321Z,22.43
2023-06-11T20:50:18.378Z,22.36
2023-06-11T20:52:46.096Z,22.30
2023-06-11T20:55:13.767Z,22.23
2023-06-11T20:57:41.517Z,22.19
2023-06-11T21:00:10.576Z,22.14
2023-06-11T21:02:38.581Z,22.07
2023-06-11T21:05:06.422Z,22.03
2023-06-11T21:07:36.052Z,21.96
2023-06-11T21:10:03.748Z,21.89
2023-06-11T21:12:31.655Z,21.81
2023-06-11T21:15:00.242Z,21.75
2023-06-11T21:17:28.744Z,21.67
2023-06-11T21:19:56.423Z,21.59
2023-06-11T21:22:24.099Z,21.52
2023-06-11T21:24:53.100Z,21.48
2023-06-11T21:27:20.808Z,21.42
2023-06-11T21:29:48.514Z,21.37
2023-06-11T21:32:16.185Z,21.30
2023-06-11T21:34:44.108Z,21.25
2023-06-11T21:37:11.817Z,21.21
2023-06-11T21:39:39.445Z,21.17
2023-06-11T21:42:09.849Z,21.10
2023-06-11T21:44:38.413Z,21.06
2023-06-11T21:47:06.898Z,20.98
2023-06-11T21:49:34.586Z,20.92
2023-06-11T21:52:03.033Z,20.84
2023-06-11T21:54:30.812Z,20.78
2023-06-11T21:56:58.946Z,20.74
2023-06-11T21:59:27.920Z,20.70
2023-06-11T22:01:55.572Z,20.67
2023-06-11T22:04:23.203Z,20.65
2023-06-11T22:06:53.921Z,20.62
2023-06-11T22:09:23.041Z,20.61
2023-06-11T22:11:50.975Z,20.60
2023-06-11T22:14:18.621Z,20.60
2023-06-11T22:16:48.459Z,20.60
2023-06-11T22:19:16.535Z,20.61
2023-06-11T22:21:45.023Z,20.58
2023-06-11T22:24:12.803Z,20.59
2023-06-11T22:26:41.983Z,20.57
2023-06-11T22:29:09.694Z,20.55
2023-06-11T22:31:40.721Z,20.53
2023-06-11T22:34:10.313Z,20.53
2023-06-11T22:36:38.402Z,20.50
2023-06-11T22:39:06.214Z,20.50
2023-06-11T22:41:33.900Z,20.47
2023-06-11T22:44:01.725Z,20.45
2023-06-11T22:46:29.496Z,20.41
2023-06-11T22:48:57.910Z,20.37
2023-06-11T22:51:26.956Z,20.34
2023-06-11T22:53:54.645Z,20.31
2023-06-11T22:56:23.856Z,20.27
2023-06-11T22:58:52.453Z,20.25
2023-06-11T23:01:21.850Z,20.22
2023-06-11T23:03:49.800Z,20.18
2023-06-11T23:06:17.502Z,20.15
2023-06-11T23:08:46.740Z,20.14
2023-06-11T23:11:14.813Z,20.12
2023-06-11T23:13:42.524Z,20.10
2023-06-11T23:16:11.413Z,20.07
2023-06-11T23:18:39.206Z,20.05
2023-06-11T23:21:07.430Z,20.02
2023-06-11T23:23:38.347Z,19.98
2023-06-11T23:26:10.602Z,19.95
2023-06-11T23:28:38.630Z,19.91
2023-06-11T23:31:07.103Z,19.87
2023-06-11T23:33:34.816Z,19.85
2023-06-11T23:36:02.593Z,19.83
2023-06-11T23:38:30.373Z,19.79
2023-06-11T23:40:58.009Z,19.75
2023-06-11T23:43:26.989Z,19.73
2023-06-11T23:45:54.671Z,19.70
2023-06-11T23:48:22.367Z,19.66
2023-06-11T23:50:50.046Z,19.60
2023-06-11T23:53:17.704Z,19.59
2023-06-11T23:55:45.325Z,19.56
2023-06-11T23:58:18.869Z,19.54
